Time;durP1;ratioP1;P1;durP2;ratioP2;P2;SDS_P1;SDS_P2;PMS_P1;PMS_P2;Temp;Humidity;BMP_temperature;BMP_pressure;BME280_temperature;BME280_humidity;BME280_pressure;Samples;Min_cycle;Max_cycle;Signal;HPM_P1;HPM_P2
2021/05/31 00:00:18;;;;;;;12.43;6.35;;;10.70;99.90;;;11.93;83.12;101393.06;4918811;29;20175;-82
2021/05/31 00:02:45;;;;;;;8.90;5.72;;;10.70;99.90;;;11.91;83.00;101391.78;4917739;29;20033;-84
2021/05/31 00:05:14;;;;;;;9.57;5.80;;;10.60;99.90;;;11.87;83.44;101390.81;4906628;29;20037;-84
2021/05/31 00:07:43;;;;;;;7.70;5.53;;;10.60;99.90;;;11.87;83.52;101390.81;4904503;29;20522;-82
2021/05/31 00:10:11;;;;;;;10.15;5.78;;;10.60;99.90;;;11.87;84.24;101385.22;4905273;29;20093;-83
2021/05/31 00:12:38;;;;;;;8.32;6.25;;;10.60;99.90;;;11.87;84.20;101385.22;4896820;29;20037;-83
2021/05/31 00:15:08;;;;;;;8.20;5.82;;;10.60;99.90;;;11.87;84.21;101383.25;4909525;29;20032;-80
2021/05/31 00:17:35;;;;;;;7.95;5.35;;;10.60;99.90;;;11.82;84.03;101383.47;4907188;29;20119;-80
2021/05/31 00:20:09;;;;;;;8.50;6.20;;;10.60;99.90;;;11.72;84.16;101381.13;4898604;29;20126;-82
2021/05/31 00:22:36;;;;;;;8.25;5.68;;;10.40;99.90;;;11.60;84.81;101384.69;4910986;29;20032;-83
2021/05/31 00:25:05;;;;;;;10.10;6.30;;;10.40;99.90;;;11.55;85.01;101384.94;4895689;29;20052;-82
2021/05/31 00:27:31;;;;;;;8.70;6.00;;;10.30;99.90;;;11.47;85.47;101385.00;4895162;29;20028;-83
2021/05/31 00:29:57;;;;;;;8.70;6.07;;;10.20;99.90;;;11.39;85.29;101378.38;4943910;23;20349;-84
2021/05/31 00:32:23;;;;;;;8.70;5.82;;;10.10;99.90;;;11.28;85.90;101376.34;4937148;29;20036;-86
2021/05/31 00:34:49;;;;;;;8.10;5.45;;;10.10;99.90;;;11.16;85.49;101381.91;4938404;29;20024;-85
2021/05/31 00:37:16;;;;;;;8.20;5.93;;;10.00;99.90;;;11.04;86.14;101377.09;4937389;29;20087;-84
2021/05/31 00:39:43;;;;;;;9.35;5.70;;;9.90;99.90;;;11.00;86.25;101384.53;4942238;29;20032;-86
2021/05/31 00:42:09;;;;;;;9.32;6.18;;;9.80;99.90;;;10.96;86.94;101376.00;4960338;28;20030;-85
2021/05/31 00:44:35;;;;;;;10.82;6.40;;;9.80;99.90;;;10.95;87.59;101373.53;4962611;28;20055;-85
2021/05/31 00:47:01;;;;;;;7.68;5.90;;;9.80;99.90;;;10.96;87.38;101376.00;4964213;28;20038;-85
2021/05/31 00:49:35;;;;;;;6.78;5.72;;;9.80;99.90;;;10.95;87.89;101374.38;4961544;28;20122;-86
2021/05/31 00:52:03;;;;;;;8.68;5.38;;;9.80;99.90;;;10.94;87.91;101371.94;4962331;29;20053;-87
2021/05/31 00:54:29;;;;;;;8.52;6.53;;;9.70;99.90;;;10.99;88.05;101375.31;4962876;28;20030;-88
2021/05/31 00:56:57;;;;;;;10.73;6.70;;;9.80;99.90;;;10.99;88.25;101371.69;4963576;28;20035;-88
2021/05/31 00:59:23;;;;;;;10.20;6.40;;;9.80;99.90;;;10.98;88.06;101372.88;4963688;28;20195;-87
2021/05/31 01:01:50;;;;;;;9.18;6.50;;;9.80;99.90;;;10.95;88.33;101367.94;4961106;28;20059;-85
2021/05/31 01:04:19;;;;;;;11.73;6.47;;;9.70;99.90;;;10.93;88.29;101384.25;4961311;29;20038;-86
2021/05/31 01:07:12;;;;;;;9.30;6.25;;;9.70;99.90;;;10.85;88.26;101368.41;4961620;29;20031;-86
2021/05/31 01:10:08;;;;;;;8.73;5.65;;;9.70;99.90;;;10.85;88.53;101377.56;4962396;28;20042;-86
2021/05/31 01:13:01;;;;;;;10.02;5.90;;;9.60;99.90;;;10.83;88.83;101381.88;4960976;29;20045;-85
2021/05/31 01:15:46;;;;;;;9.60;5.82;;;9.60;99.90;;;10.77;89.35;101375.69;4980215;28;20031;-84
2021/05/31 01:18:40;;;;;;;9.10;6.53;;;9.50;99.90;;;10.66;89.47;101366.06;4961313;29;20065;-84
2021/05/31 01:22:07;;;;;;;10.13;6.53;;;9.50;99.90;;;10.59;89.10;101377.00;4959791;28;20290;-87
2021/05/31 01:25:05;;;;;;;8.82;6.22;;;9.40;99.90;;;10.53;89.31;101376.38;4961057;28;20027;-85
2021/05/31 01:28:21;;;;;;;9.35;6.30;;;9.30;99.90;;;10.55;90.28;101378.84;4962855;28;20027;-86
2021/05/31 01:30:50;;;;;;;10.75;6.65;;;9.30;99.90;;;10.54;90.49;101372.44;4960655;28;20384;-84
2021/05/31 01:33:27;;;;;;;9.57;6.43;;;9.30;99.90;;;10.50;90.28;101374.25;4960619;29;20031;-84
2021/05/31 01:35:58;;;;;;;10.55;6.55;;;9.30;99.90;;;10.46;90.45;101375.28;4960797;29;20447;-87
2021/05/31 01:38:26;;;;;;;8.02;6.00;;;9.30;99.90;;;10.40;90.63;101376.66;4960795;29;20509;-87
2021/05/31 01:40:54;;;;;;;8.95;6.07;;;9.20;99.90;;;10.38;91.05;101373.38;4960420;28;20033;-87
2021/05/31 01:43:25;;;;;;;9.20;6.00;;;9.20;99.90;;;10.29;90.97;101375.41;4959729;29;20085;-86
2021/05/31 01:45:52;;;;;;;11.75;6.55;;;9.10;99.90;;;10.24;91.20;101373.63;4965124;28;20122;-88
2021/05/31 01:48:18;;;;;;;8.60;5.93;;;9.10;99.90;;;10.20;90.97;101374.66;4979123;28;20046;-89
2021/05/31 01:50:46;;;;;;;12.95;6.78;;;9.00;99.90;;;10.17;91.24;101369.75;4971808;28;20043;-87
2021/05/31 01:53:13;;;;;;;11.85;7.47;;;9.00;99.90;;;10.21;91.58;101365.91;4960253;28;20081;-86
2021/05/31 01:55:40;;;;;;;9.07;7.05;;;9.10;99.90;;;10.29;91.49;101375.41;4958835;28;20514;-85
2021/05/31 01:58:09;;;;;;;9.63;7.15;;;9.10;99.90;;;10.34;91.57;101366.84;4959521;29;20031;-85
2021/05/31 02:00:35;;;;;;;9.75;6.03;;;9.10;99.90;;;10.27;91.54;101370.19;4959289;28;20439;-88
2021/05/31 02:03:03;;;;;;;11.80;5.82;;;9.10;99.90;;;10.23;91.63;101369.22;4960571;29;20027;-87
2021/05/31 02:05:30;;;;;;;8.27;6.65;;;9.00;99.90;;;10.17;91.90;101369.75;4973146;28;20039;-87
2021/05/31 02:07:56;;;;;;;10.98;7.07;;;9.00;99.90;;;10.12;92.02;101367.09;4962329;28;20031;-87
2021/05/31 02:10:23;;;;;;;8.98;6.60;;;9.00;99.90;;;10.10;92.24;101361.03;4963542;28;20447;-87
2021/05/31 02:13:04;;;;;;;10.18;7.13;;;8.90;99.90;;;10.08;92.40;101362.19;4962507;29;20023;-86
2021/05/31 02:15:36;;;;;;;11.40;7.63;;;8.90;99.90;;;10.07;91.95;101360.56;4962582;28;20030;-87
2021/05/31 02:18:44;;;;;;;8.65;6.45;;;8.90;99.90;;;10.02;91.89;101366.34;4977174;28;20027;-87
2021/05/31 02:21:15;;;;;;;9.20;6.25;;;8.80;99.90;;;9.95;92.29;101362.47;4973986;28;20423;-87
2021/05/31 02:23:42;;;;;;;11.88;6.45;;;8.80;99.90;;;9.92;92.06;101354.75;4959890;28;20035;-85
2021/05/31 02:26:19;;;;;;;9.85;6.50;;;8.70;99.90;;;9.85;92.42;101348.88;4960246;28;20031;-85
2021/05/31 02:28:48;;;;;;;10.00;6.65;;;8.70;99.90;;;9.84;92.69;101355.59;4960344;29;20027;-87
2021/05/31 02:31:18;;;;;;;8.52;6.55;;;8.70;99.90;;;9.80;92.52;101357.44;4963220;28;20057;-85
2021/05/31 02:33:47;;;;;;;9.02;6.57;;;8.60;99.90;;;9.80;92.55;101360.22;4962155;28;20042;-86
2021/05/31 02:36:16;;;;;;;8.90;6.28;;;8.60;99.90;;;9.75;92.53;101352.06;4962299;29;20090;-88
2021/05/31 02:38:43;;;;;;;13.07;6.57;;;8.60;99.90;;;9.66;92.76;101352.09;4960047;29;20093;-86
2021/05/31 02:41:09;;;;;;;10.88;6.63;;;8.50;99.90;;;9.65;93.12;101344.06;4960474;28;20034;-87
2021/05/31 02:43:35;;;;;;;14.25;7.03;;;8.50;99.90;;;9.66;93.38;101349.31;4959123;29;20031;-87
2021/05/31 02:46:03;;;;;;;10.65;6.43;;;8.50;99.90;;;9.68;92.95;101346.16;4959587;29;20031;-88
2021/05/31 02:48:29;;;;;;;11.15;6.85;;;8.60;99.90;;;9.63;93.24;101347.19;4960338;29;20051;-85
2021/05/31 02:50:56;;;;;;;8.40;5.90;;;8.50;99.90;;;9.61;93.31;101352.28;4958582;28;20399;-87
2021/05/31 02:53:25;;;;;;;22.55;7.72;;;8.40;99.90;;;9.59;93.41;101357.38;4959798;29;20019;-87
2021/05/31 02:55:52;;;;;;;11.93;7.25;;;8.40;99.90;;;9.59;93.79;101343.44;4960530;29;20041;-87
2021/05/31 02:58:19;;;;;;;14.13;7.13;;;8.40;99.90;;;9.60;93.53;101342.25;4960303;29;20112;-87
2021/05/31 03:00:45;;;;;;;9.07;6.35;;;8.40;99.90;;;9.60;93.65;101349.84;4960044;28;20055;-87
2021/05/31 03:03:11;;;;;;;16.45;7.45;;;8.40;99.90;;;9.61;93.80;101349.47;4962762;29;20042;-87
2021/05/31 03:05:38;;;;;;;10.48;6.93;;;8.40;99.90;;;9.62;94.17;101341.94;4962303;29;20336;-87
2021/05/31 03:08:05;;;;;;;10.43;7.25;;;8.40;99.90;;;9.61;94.08;101341.13;4962628;29;20034;-85
2021/05/31 03:10:31;;;;;;;10.02;6.68;;;8.40;99.90;;;9.60;93.86;101341.47;4963554;28;20027;-86
2021/05/31 03:13:01;;;;;;;11.75;7.00;;;8.40;99.90;;;9.56;93.94;101344.09;4960622;28;20031;-86
2021/05/31 03:15:28;;;;;;;10.48;7.57;;;8.40;99.90;;;9.49;93.98;101350.19;4960813;28;20027;-85
2021/05/31 03:17:54;;;;;;;10.35;6.55;;;8.30;99.90;;;9.43;93.92;101350.72;4961115;29;20122;-87
2021/05/31 03:20:29;;;;;;;11.73;6.88;;;8.30;99.90;;;9.42;93.66;101349.06;4961443;28;20035;-89
2021/05/31 03:22:56;;;;;;;12.00;7.78;;;8.20;99.90;;;9.45;93.82;101345.59;4960341;28;20537;-89
2021/05/31 03:25:24;;;;;;;12.25;7.70;;;8.30;99.90;;;9.48;94.16;101347.72;4962365;29;20066;-87
2021/05/31 03:27:53;;;;;;;10.20;7.30;;;8.30;99.90;;;9.50;94.59;101351.03;4961752;28;20027;-88
2021/05/31 03:30:21;;;;;;;11.52;7.60;;;8.30;99.90;;;9.46;94.09;101348.06;4961127;28;20035;-88
2021/05/31 03:32:54;;;;;;;12.57;7.32;;;8.30;99.90;;;9.48;94.40;101354.13;4960779;29;20035;-87
2021/05/31 03:35:20;;;;;;;9.95;6.78;;;8.30;99.90;;;9.47;94.64;101351.69;4960291;29;20514;-87
2021/05/31 03:37:48;;;;;;;10.63;7.43;;;8.30;99.90;;;9.50;94.85;101351.03;4960301;29;20062;-86
2021/05/31 03:40:21;;;;;;;11.40;7.75;;;8.30;99.90;;;9.51;94.65;101353.47;4959866;28;20492;-86
2021/05/31 03:42:50;;;;;;;10.95;7.50;;;8.40;99.90;;;9.57;94.81;101353.28;4960567;29;20031;-85
2021/05/31 03:45:19;;;;;;;10.68;7.32;;;8.40;99.90;;;9.61;94.54;101348.66;4964236;28;20026;-85
2021/05/31 03:47:47;;;;;;;11.88;7.35;;;8.30;99.90;;;9.59;94.54;101353.75;4959782;29;20055;-86
2021/05/31 03:50:14;;;;;;;10.23;7.30;;;8.40;99.90;;;9.64;94.28;101356.34;4960940;28;20027;-86
2021/05/31 03:52:41;;;;;;;13.20;7.63;;;8.40;99.90;;;9.62;94.39;101351.13;4961381;28;20035;-85
2021/05/31 03:55:09;;;;;;;11.45;7.93;;;8.40;99.90;;;9.62;93.88;101348.34;4979178;28;20034;-85
2021/05/31 03:57:37;;;;;;;9.40;6.88;;;8.40;99.90;;;9.61;94.48;101355.06;4990898;28;20034;-86
2021/05/31 04:00:10;;;;;;;10.18;6.70;;;8.40;99.90;;;9.61;94.53;101354.22;4974689;28;20031;-84
2021/05/31 04:02:44;;;;;;;12.25;7.22;;;8.40;99.90;;;9.61;94.42;101355.06;4957041;28;20387;-87
2021/05/31 04:05:14;;;;;;;10.98;6.78;;;8.40;99.90;;;9.63;94.24;101358.34;4982401;28;20043;-86
2021/05/31 04:13:10;;;;;;;8.70;5.97;;;8.50;99.90;;;9.81;94.21;101359.91;4968582;28;20033;-86
2021/05/31 04:15:36;;;;;;;11.05;7.32;;;8.50;99.90;;;9.84;94.26;101358.41;4962723;28;20027;-86
2021/05/31 04:18:05;;;;;;;11.10;6.90;;;8.60;99.90;;;9.91;94.10;101358.69;4965301;28;20031;-88
2021/05/31 04:20:33;;;;;;;12.02;7.53;;;8.60;99.90;;;9.95;94.51;101363.25;4969430;28;20513;-86
2021/05/31 04:22:59;;;;;;;9.32;6.90;;;8.70;99.90;;;10.01;94.35;101361.94;4966157;28;20038;-85
2021/05/31 04:25:25;;;;;;;11.98;7.25;;;8.80;99.90;;;10.09;94.12;101351.84;4970009;28;20019;-87
2021/05/31 04:27:51;;;;;;;16.05;7.45;;;8.90;99.90;;;10.19;94.08;101361.84;4961488;28;20095;-86
2021/05/31 04:30:18;;;;;;;13.07;7.90;;;8.90;99.90;;;10.32;94.00;101357.97;4963336;28;20094;-84
2021/05/31 04:32:44;;;;;;;11.30;7.38;;;9.10;99.90;;;10.52;93.85;101359.97;4969281;28;20031;-87
2021/05/31 04:35:10;;;;;;;13.40;6.93;;;9.20;99.90;;;10.76;93.48;101362.88;4963303;28;20034;-88
2021/05/31 04:37:37;;;;;;;9.68;7.45;;;9.40;99.90;;;10.96;92.90;101350.84;4964712;29;20035;-85
2021/05/31 04:40:05;;;;;;;12.02;7.45;;;9.60;99.90;;;11.22;92.36;101352.56;4967030;28;20043;-87
2021/05/31 04:42:32;;;;;;;10.50;7.43;;;9.80;99.90;;;11.39;91.62;101352.38;4981783;28;20027;-86
2021/05/31 04:44:58;;;;;;;14.25;7.82;;;10.00;99.90;;;11.64;91.07;101357.66;4978544;28;20035;-86
2021/05/31 04:47:25;;;;;;;12.23;7.47;;;10.10;99.90;;;11.81;90.39;101351.06;4968475;28;20038;-85
2021/05/31 04:49:52;;;;;;;10.45;6.13;;;10.30;99.90;;;12.02;89.78;101350.94;4973318;28;20042;-86
2021/05/31 04:52:19;;;;;;;12.10;6.97;;;10.50;99.90;;;12.25;89.39;101352.06;4975767;28;20055;-86
2021/05/31 04:54:47;;;;;;;10.27;6.97;;;10.70;99.90;;;12.49;88.60;101351.22;4968919;28;20058;-86
2021/05/31 04:57:13;;;;;;;11.77;6.85;;;10.90;99.90;;;12.71;87.92;101345.06;4965334;28;20022;-85
2021/05/31 04:59:39;;;;;;;10.13;6.25;;;11.20;99.90;;;12.95;86.88;101347.78;4963997;28;20039;-87
2021/05/31 05:02:05;;;;;;;8.80;5.70;;;11.30;99.90;;;13.16;86.08;101356.00;4977131;28;20030;-87
2021/05/31 05:04:32;;;;;;;12.68;7.70;;;11.50;99.90;;;13.36;83.26;101354.13;4976018;28;20022;-86
2021/05/31 05:06:59;;;;;;;12.20;7.18;;;11.80;99.90;;;13.54;82.85;101361.03;4981117;28;20035;-85
2021/05/31 05:09:25;;;;;;;8.05;5.95;;;11.90;99.90;;;13.75;82.36;101341.91;4972100;28;20037;-89
2021/05/31 05:11:51;;;;;;;11.95;5.90;;;12.10;99.90;;;14.03;81.52;101353.84;4979762;28;20507;-88
2021/05/31 05:14:18;;;;;;;12.07;6.30;;;12.30;99.90;;;14.31;81.40;101350.09;4979057;28;20042;-85
2021/05/31 05:16:44;;;;;;;9.50;5.60;;;12.50;99.90;;;14.59;80.67;101356.38;4972623;28;20440;-87
2021/05/31 05:19:11;;;;;;;9.77;6.22;;;12.80;99.90;;;14.81;79.35;101352.03;4969156;28;20109;-86
2021/05/31 05:21:37;;;;;;;12.18;6.25;;;13.00;99.90;;;15.09;78.27;101355.44;4974714;28;20081;-86
2021/05/31 05:24:03;;;;;;;8.70;6.65;;;13.20;99.90;;;15.34;77.16;101350.28;4957252;28;20027;-86
2021/05/31 05:26:29;;;;;;;12.40;7.43;;;13.50;99.90;;;15.60;76.41;101347.56;4959596;28;20522;-87
2021/05/31 05:28:58;;;;;;;16.45;8.18;;;13.80;99.90;;;15.81;74.92;101348.75;4973555;28;20165;-84
2021/05/31 05:31:25;;;;;;;12.32;8.18;;;14.00;99.90;;;16.13;73.98;101351.28;4990053;28;20038;-86
2021/05/31 05:33:52;;;;;;;14.95;8.20;;;14.20;99.90;;;16.38;72.05;101351.63;4960029;29;20114;-87
2021/05/31 05:42:13;;;;;;;13.20;7.75;;;15.10;99.90;;;17.40;70.46;101345.28;4962442;28;20519;-87
2021/05/31 05:49:52;;;;;;;15.00;8.93;;;15.80;99.90;;;18.05;65.40;101352.34;4963253;28;20035;-87
2021/05/31 05:52:19;;;;;;;12.75;7.82;;;16.00;99.90;;;18.24;63.45;101347.25;4961689;28;20031;-88
2021/05/31 05:54:49;;;;;;;15.88;8.57;;;16.20;99.90;;;18.34;62.16;101352.19;4963034;29;20035;-87
2021/05/31 05:57:15;;;;;;;12.80;7.88;;;16.40;99.90;;;18.59;60.57;101343.06;4961904;29;20039;-85
2021/05/31 05:59:41;;;;;;;11.65;7.90;;;16.60;99.90;;;18.86;59.90;101338.75;4962363;28;20031;-88
2021/05/31 06:02:07;;;;;;;13.13;8.13;;;16.80;99.90;;;19.12;59.22;101343.28;4963537;29;20031;-88
2021/05/31 06:04:34;;;;;;;13.23;8.05;;;17.10;99.90;;;19.39;58.46;101347.41;4962869;29;20019;-87
2021/05/31 06:07:01;;;;;;;10.98;7.95;;;17.30;99.90;;;19.59;57.17;101345.84;4962850;29;20045;-85
2021/05/31 06:09:27;;;;;;;12.13;8.27;;;17.50;99.90;;;19.71;56.07;101339.81;4959979;28;20037;-86
2021/05/31 06:11:54;;;;;;;11.38;8.10;;;17.60;99.90;;;19.95;54.97;101341.00;4968984;28;20453;-85
2021/05/31 06:14:20;;;;;;;11.23;7.57;;;17.80;99.90;;;19.93;54.49;101341.44;4964741;28;20062;-86
2021/05/31 06:16:46;;;;;;;10.15;7.30;;;17.90;99.90;;;20.19;53.82;101342.22;4961998;28;20034;-86
2021/05/31 06:19:14;;;;;;;9.02;6.97;;;18.10;99.90;;;20.42;53.49;101334.09;4968182;28;20067;-85
2021/05/31 06:21:39;;;;;;;10.82;6.07;;;18.40;99.90;;;20.52;52.34;101336.09;4970223;28;20027;-88
2021/05/31 06:24:06;;;;;;;13.43;7.13;;;18.60;99.90;;;20.77;52.04;101338.88;4966370;28;20199;-85
2021/05/31 06:26:32;;;;;;;11.18;6.78;;;18.80;99.90;;;21.04;50.64;101328.59;4974776;28;20464;-86
2021/05/31 06:28:58;;;;;;;14.38;7.05;;;18.90;99.90;;;21.21;50.21;101327.72;4988145;28;20052;-86
2021/05/31 06:31:23;;;;;;;12.85;6.63;;;19.10;99.90;;;21.48;49.53;101331.59;4979331;23;20107;-83
2021/05/31 06:33:49;;;;;;;12.70;6.18;;;19.30;99.90;;;21.74;48.91;101332.22;4950135;29;20101;-86
2021/05/31 06:36:15;;;;;;;10.98;5.53;;;19.50;99.90;;;21.97;48.01;101329.63;4957710;28;20023;-86
2021/05/31 06:38:41;;;;;;;9.43;5.93;;;19.70;99.90;;;22.05;47.18;101331.19;4960224;29;20023;-84
2021/05/31 06:41:07;;;;;;;8.38;5.78;;;19.80;99.90;;;22.08;46.22;101333.19;4965316;28;20023;-84
2021/05/31 06:43:34;;;;;;;9.50;6.13;;;20.00;95.80;;;22.46;46.70;101328.34;4980130;28;20031;-83
2021/05/31 06:46:01;;;;;;;10.63;7.07;;;20.20;99.70;;;22.86;44.47;101324.63;4961457;28;20043;-88
2021/05/31 06:48:27;;;;;;;11.48;6.55;;;20.60;92.40;;;23.22;44.55;101324.16;4961778;28;20077;-82
2021/05/31 06:50:53;;;;;;;12.45;7.20;;;20.90;92.90;;;23.16;44.43;101329.53;4959228;28;20031;-86
2021/05/31 06:53:21;;;;;;;14.82;7.13;;;20.90;91.20;;;23.33;43.76;101328.47;4964037;28;20509;-86
2021/05/31 06:55:47;;;;;;;14.15;6.65;;;21.00;88.80;;;23.50;43.77;101321.72;4969158;28;20101;-84
2021/05/31 06:58:19;;;;;;;14.77;6.80;;;21.10;90.10;;;23.67;43.27;101327.56;4979644;28;20074;-84
2021/05/31 07:00:47;;;;;;;11.55;6.50;;;21.40;86.70;;;23.98;42.62;101327.06;4964053;28;20028;-84
2021/05/31 07:03:14;;;;;;;8.88;6.50;;;21.50;84.40;;;24.16;43.29;101325.94;4962065;28;20087;-83
2021/05/31 07:05:39;;;;;;;11.55;6.70;;;21.80;86.30;;;24.03;41.06;101331.44;4960675;29;20324;-83
2021/05/31 07:08:07;;;;;;;9.02;5.85;;;21.80;75.20;;;24.31;41.64;101327.28;4957326;28;20659;-82
2021/05/31 07:10:34;;;;;;;9.15;4.97;;;21.90;78.40;;;24.41;41.26;101327.09;4969110;28;20034;-80
2021/05/31 07:13:02;;;;;;;11.65;6.47;;;22.10;76.10;;;24.52;41.17;101322.00;4980672;28;20059;-83
2021/05/31 07:15:29;;;;;;;15.80;6.75;;;22.30;75.00;;;25.01;40.90;101308.75;4955709;29;20035;-84
2021/05/31 07:17:55;;;;;;;10.40;6.20;;;22.60;74.30;;;25.03;39.78;101319.75;4957960;28;20027;-81
2021/05/31 07:20:21;;;;;;;10.45;6.68;;;22.70;70.60;;;25.18;39.49;101326.75;4957828;28;20038;-84
2021/05/31 07:22:48;;;;;;;14.50;6.97;;;22.80;70.20;;;25.13;39.35;101319.53;4963897;28;20547;-84
2021/05/31 07:25:18;;;;;;;10.68;7.10;;;22.80;69.30;;;25.09;39.71;101310.22;4968326;28;20029;-82
2021/05/31 07:27:47;;;;;;;13.50;6.57;;;22.90;68.20;;;25.50;39.77;101308.91;4973045;28;20030;-85
2021/05/31 07:30:17;;;;;;;11.13;7.43;;;23.10;70.30;;;25.13;39.17;101313.81;4971152;28;20491;-81
2021/05/31 07:32:45;;;;;;;13.60;7.97;;;23.00;68.20;;;25.28;39.40;101316.34;4964448;28;20041;-84
2021/05/31 07:35:11;;;;;;;18.80;9.23;;;23.00;67.80;;;25.18;38.93;101313.28;4970182;28;20039;-83
2021/05/31 07:37:38;;;;;;;15.27;8.43;;;23.00;66.40;;;25.65;38.76;101316.69;4973282;28;20022;-84
2021/05/31 07:40:10;;;;;;;14.88;8.85;;;23.10;67.50;;;26.00;37.69;101308.47;4959521;28;20082;-87
2021/05/31 07:42:39;;;;;;;18.02;10.02;;;23.30;66.20;;;25.71;38.22;101319.03;4957788;28;20057;-83
2021/05/31 07:45:08;;;;;;;14.88;8.80;;;23.50;65.40;;;25.56;38.48;101301.38;4964034;28;20030;-87
2021/05/31 07:47:35;;;;;;;13.80;7.88;;;23.50;64.80;;;25.60;38.66;101307.84;4974861;28;20023;-86
2021/05/31 07:50:05;;;;;;;13.27;6.22;;;23.50;64.90;;;25.92;38.05;101302.13;4977737;28;20042;-87
2021/05/31 07:52:31;;;;;;;14.63;7.57;;;23.60;64.90;;;25.92;37.68;101307.03;4982640;28;20146;-87
2021/05/31 07:54:57;;;;;;;15.77;8.18;;;23.70;63.30;;;25.72;38.23;101303.47;4967451;28;20031;-88
2021/05/31 07:57:25;;;;;;;14.23;8.25;;;23.60;63.70;;;26.00;38.44;101306.41;4968581;28;20031;-83
2021/05/31 07:59:53;;;;;;;12.32;6.63;;;23.80;64.10;;;26.33;37.26;101297.81;4967723;28;20035;-87
2021/05/31 08:02:23;;;;;;;14.90;6.30;;;23.90;63.40;;;26.47;36.87;101303.94;4975136;28;20027;-83
2021/05/31 08:04:49;;;;;;;13.65;7.15;;;23.90;61.90;;;26.31;37.25;101298.25;4978304;28;20049;-84
2021/05/31 08:07:15;;;;;;;12.50;5.93;;;24.10;62.30;;;26.33;37.11;101297.81;4977724;28;20050;-85
2021/05/31 08:09:41;;;;;;;14.35;7.40;;;24.20;61.20;;;26.26;37.29;101293.09;4973256;28;20035;-82
2021/05/31 08:12:09;;;;;;;13.15;7.40;;;24.20;61.50;;;26.50;37.07;101303.03;4970403;28;20051;-82
2021/05/31 08:14:35;;;;;;;14.45;7.43;;;24.40;61.90;;;26.68;37.53;101297.59;4967460;28;20027;-85
2021/05/31 08:17:02;;;;;;;11.75;6.80;;;24.50;62.10;;;26.88;37.37;101300.31;4993713;28;20035;-82
2021/05/31 08:19:31;;;;;;;9.27;6.55;;;24.60;62.10;;;27.22;36.88;101302.56;4978411;28;20031;-88
2021/05/31 08:22:00;;;;;;;12.95;7.00;;;24.70;62.20;;;27.41;36.17;101304.41;4978854;28;20062;-84
2021/05/31 08:24:26;;;;;;;12.82;8.27;;;24.90;61.40;;;27.09;35.81;101305.41;4982329;28;20458;-80
2021/05/31 08:26:53;;;;;;;9.25;6.63;;;25.10;59.00;;;26.80;36.42;101301.75;4996180;28;20102;-77
2021/05/31 08:29:21;;;;;;;12.50;7.35;;;24.90;59.10;;;27.06;36.46;101292.00;4995570;28;20027;-82
2021/05/31 08:31:49;;;;;;;12.80;6.85;;;25.00;59.50;;;27.25;36.54;101293.03;4995670;28;20026;-81
2021/05/31 08:34:15;;;;;;;11.32;6.95;;;25.10;60.10;;;27.18;36.80;101287.53;4991338;28;20050;-83
2021/05/31 08:36:44;;;;;;;8.77;6.60;;;25.00;60.00;;;27.66;36.30;101284.34;4978907;28;20255;-85
2021/05/31 08:39:11;;;;;;;15.15;6.57;;;25.20;59.90;;;27.88;35.10;101295.91;4975821;28;20031;-81
2021/05/31 08:41:38;;;;;;;9.05;5.88;;;25.40;58.50;;;27.76;34.98;101291.00;4974865;28;20091;-82
2021/05/31 08:44:06;;;;;;;12.57;6.78;;;25.50;57.80;;;27.54;35.31;101288.03;4959265;28;20054;-80
2021/05/31 08:46:36;;;;;;;7.15;5.10;;;25.40;58.20;;;27.88;34.35;101284.41;4963834;28;20095;-81
2021/05/31 08:49:02;;;;;;;11.68;6.68;;;25.50;57.00;;;27.84;35.02;101286.59;4974166;28;20528;-83
2021/05/31 08:51:28;;;;;;;9.40;5.75;;;25.60;57.50;;;27.92;34.33;101287.16;4976829;28;20055;-81
2021/05/31 08:53:56;;;;;;;13.18;6.03;;;25.70;57.60;;;27.82;35.49;101289.13;4976089;28;20027;-82
2021/05/31 08:56:22;;;;;;;17.05;7.35;;;25.70;57.80;;;27.92;35.72;101279.38;4976258;28;20093;-79
2021/05/31 08:58:49;;;;;;;11.27;7.03;;;25.80;58.10;;;27.76;36.59;101285.25;4977634;28;20428;-82
2021/05/31 09:01:18;;;;;;;9.60;6.93;;;25.60;59.10;;;27.89;35.30;101283.16;4981539;28;20066;-81
2021/05/31 09:03:45;;;;;;;9.80;6.20;;;25.60;57.40;;;27.20;36.15;101279.25;4970391;28;20023;-83
2021/05/31 09:06:15;;;;;;;8.75;5.95;;;25.50;57.80;;;27.64;35.45;101281.13;4976517;28;20042;-84
2021/05/31 09:09:00;;;;;;;11.40;6.50;;;25.50;57.40;;;27.63;36.44;101276.66;4962012;28;20030;-82
2021/05/31 09:11:28;;;;;;;11.38;6.70;;;25.60;58.40;;;27.71;35.74;101277.19;4939381;29;20051;-85
2021/05/31 09:13:58;;;;;;;9.45;7.10;;;25.60;57.90;;;27.35;35.33;101273.88;4942108;29;20035;-84
2021/05/31 09:16:28;;;;;;;15.10;7.47;;;25.40;56.90;;;27.31;35.61;101271.13;4941277;28;20127;-84
2021/05/31 09:19:04;;;;;;;15.27;6.63;;;25.30;57.50;;;27.42;35.23;101268.69;4938860;29;20032;-84
2021/05/31 09:21:39;;;;;;;18.38;6.00;;;25.30;58.00;;;27.39;35.17;101278.22;4940823;29;20036;-84
2021/05/31 09:24:10;;;;;;;11.90;5.93;;;25.30;56.60;;;27.29;34.88;101273.66;4940841;28;20035;-82
2021/05/31 09:26:59;;;;;;;7.57;5.38;;;25.30;56.00;;;27.42;35.13;101265.84;4939892;29;20028;-84
2021/05/31 09:29:27;;;;;;;13.18;5.78;;;25.30;57.00;;;27.57;34.35;101264.16;4924570;29;20036;-81
2021/05/31 09:32:09;;;;;;;8.05;5.95;;;25.50;55.80;;;27.21;34.66;101257.94;4968274;28;20058;-82
2021/05/31 09:34:35;;;;;;;9.02;5.53;;;25.40;55.00;;;27.37;33.94;101263.56;4954187;28;20030;-82
2021/05/31 09:37:04;;;;;;;9.10;4.88;;;25.50;54.30;;;27.27;32.94;101264.69;4980598;28;20039;-83
2021/05/31 09:39:37;;;;;;;10.32;5.28;;;25.40;52.90;;;27.68;32.13;101255.16;4972101;28;20035;-85
2021/05/31 09:42:16;;;;;;;10.07;5.60;;;25.50;53.00;;;27.63;34.37;101247.16;4955700;28;20031;-83
2021/05/31 09:44:58;;;;;;;7.80;4.85;;;25.40;55.50;;;26.93;33.23;101264.56;4953104;28;20427;-83
2021/05/31 09:47:35;;;;;;;8.02;4.28;;;24.90;54.20;;;27.02;33.28;101253.22;4965274;28;20027;-85
2021/05/31 09:50:06;;;;;;;9.32;5.13;;;24.90;54.20;;;27.28;33.61;101257.72;4967396;28;20027;-84
2021/05/31 09:52:35;;;;;;;7.47;4.13;;;25.10;54.60;;;27.86;33.25;101260.31;4972160;28;20050;-83
2021/05/31 09:55:09;;;;;;;10.07;6.75;;;25.40;54.60;;;27.50;35.20;101250.03;4964951;28;20502;-83
2021/05/31 09:57:38;;;;;;;9.55;5.90;;;25.60;56.20;;;26.71;36.83;101245.09;4960530;28;20126;-83
2021/05/31 10:00:17;;;;;;;10.02;4.93;;;25.10;57.60;;;27.50;33.84;101244.31;4978296;28;20121;-82
2021/05/31 10:02:52;;;;;;;6.82;4.28;;;25.20;55.00;;;28.40;33.11;101251.41;4976343;28;20085;-82
2021/05/31 10:10:34;;;;;;;8.45;4.70;;;26.30;50.40;;;28.63;31.99;101239.47;4965955;28;20043;-84
2021/05/31 10:13:00;;;;;;;10.80;4.20;;;26.40;52.40;;;29.26;31.82;101239.06;4969891;28;20086;-82
2021/05/31 10:15:35;;;;;;;10.75;5.60;;;26.70;53.20;;;28.96;30.72;101234.09;4978208;28;20027;-84
2021/05/31 10:18:06;;;;;;;11.13;5.88;;;27.00;50.60;;;29.29;30.33;101235.22;4979613;28;20104;-83
2021/05/31 10:20:38;;;;;;;8.02;4.80;;;27.20;50.10;;;28.49;30.72;101234.25;4977162;28;20059;-83
2021/05/31 10:23:08;;;;;;;6.53;3.90;;;26.90;49.30;;;28.74;31.34;101232.06;4979018;28;20055;-83
2021/05/31 10:25:40;;;;;;;6.25;4.50;;;26.80;51.30;;;28.37;31.04;101230.19;4975842;28;20125;-82
2021/05/31 10:28:15;;;;;;;8.65;4.72;;;26.50;49.90;;;27.26;33.16;101228.66;4978476;28;20182;-83
2021/05/31 10:30:49;;;;;;;11.63;4.68;;;25.70;52.00;;;26.28;33.60;101218.97;4992870;28;20121;-81
2021/05/31 10:33:22;;;;;;;9.95;4.75;;;24.70;52.30;;;25.51;35.18;101225.53;4972524;28;20394;-83
2021/05/31 10:35:51;;;;;;;6.82;4.47;;;24.00;54.40;;;25.18;35.84;101221.00;4973403;28;20035;-84
2021/05/31 10:38:21;;;;;;;5.05;3.60;;;23.50;55.90;;;25.38;36.18;101218.88;4977710;28;20038;-83
2021/05/31 10:40:53;;;;;;;6.20;4.18;;;23.50;56.90;;;25.81;34.96;101214.94;4971744;28;20032;-83
2021/05/31 10:43:29;;;;;;;7.97;4.78;;;23.80;55.50;;;26.66;33.72;101225.63;4958599;29;20491;-84